Contoocook River @ Riverhill, Nh

Contoocook River at River Hill
 Total Drainage Area: 760 sq. miles 
 Drainage Area Controlled by Corps Dams: 555 sq. miles (73%) 
 Warning Flow/Stage: 5,640 cfs / 14.7 feet 
 Flood Flow/Stage: 12,000 cfs / 18.0 feet 
Date Time
(Eastern)
Stage
(ft)
Flow
(cfs)
CSM
(cfs / sq. mi.)
Jan-31 02:30 pm 11.01 435 .6
Jan-31 01:30 pm 11.02 441 .6
Jan-31 12:30 pm 11.01 435 .6
Jan-31 11:30 am 11.00 430 .6
Jan-31 10:30 am 10.99 426 .6
Jan-31 09:30 am 10.99 426 .6
Jan-31 08:30 am 11.01 435 .6
Jan-31 07:30 am 11.02 441 .6
Jan-31 06:30 am 11.02 441 .6
Jan-31 05:30 am 11.02 441 .6
Jan-31 04:30 am 11.03 446 .6
Jan-31 03:30 am 11.03 446 .6
Jan-31 02:30 am 11.03 446 .6
Jan-31 01:30 am 11.03 446 .6
Jan-31 12:30 am 11.03 446 .6
Jan-30 11:30 pm 11.04 452 .6
Jan-30 10:30 pm 11.04 452 .6
Jan-30 09:30 pm 11.04 452 .6
Jan-30 08:30 pm 11.06 462 .6
Jan-30 07:30 pm 11.08 473 .6
Jan-30 06:30 pm 11.09 479 .6
Jan-30 05:30 pm 11.12 495 .7
Jan-30 04:30 pm 11.15 511 .7
Jan-30 03:30 pm 11.20 538 .7
Jan-30 02:30 pm 11.23 554 .7
Report Generated January 31, 2023 03:11 pm